Hlavní strana
METAR-TAF:

METAR-TAF

Letiště :

Toliara, Madagaskar

zeměpisná šířka: 23-23S, zeměpisná délka: 043-44E, výška: 8 m

METAR: chybějící

Čas: 05:54 (02:54 UTC)

Předpověď počasí

Zpráva byla vytvořena před 3 hodinami a 54 minutami, v 23:00 UTC
Předpověď platná od 20 v 00 UTC do 20 v 24 UTC
Východní vítr 5 kt
Viditelnost 10 km a více
Skoro jasno ve výšce 2000 ft
Změna
od 20 v 06 UTC do 20 v 09 UTC
Západoseverozápadní vítr 10 kt
Polojasno ve výšce 2000 ft, Cumulonimbus.
Pravděpodobnost 30% :
Dočasný
od 20 v 12 UTC do 20 v 20 UTC
Viditelnost: 4500 m
bouřka, déšť

TAF: FMST 192300Z 2000/2024 08005KT 9999 FEW020 BECMG 2006/2009 30010KT SCT020CB PROB30 TEMPO 2012/2020 4500 TSRA

Stav a předpovědi počasí z více než 4 000 letišť (zprávy METAR a TAF).

Červené a žluté tečky na mapě představují dostupné meteorologické stanice.

Když kurzor umístíte na tečku, zobrazí se název stanice.

Pak kliknutím zobrazíte stav a předpověď počasí.

Chcete-li změnit mapu, kliknutím na zelené tlačítko se znaménkem +mapu přiblížíte, kliknutím na zelené tlačítko se znaménkem – mapu oddálíte a kliknutím na zelené šipky přejdete na sousední mapy.


METAR-TAF: